createdAt,value
2018-11-27T00:00:14.298Z,6.67
2018-11-27T00:00:40.431Z,6.6
2018-11-27T00:01:06.543Z,6.59
2018-11-27T00:01:32.646Z,6.57
2018-11-27T00:01:58.963Z,6.75
2018-11-27T00:02:25.032Z,6.66
2018-11-27T00:02:51.142Z,6.74
2018-11-27T00:03:17.239Z,6.7
2018-11-27T00:03:43.385Z,6.72
2018-11-27T00:04:09.487Z,6.74
2018-11-27T00:04:35.592Z,6.77
2018-11-27T00:05:01.703Z,6.72
2018-11-27T00:05:27.828Z,6.81
2018-11-27T00:05:53.933Z,6.81
2018-11-27T00:06:20.040Z,6.81
2018-11-27T00:06:46.148Z,6.79
2018-11-27T00:07:12.284Z,6.74
2018-11-27T00:07:38.382Z,6.81
2018-11-27T00:08:05.090Z,6.74
2018-11-27T00:08:31.196Z,6.78
2018-11-27T00:08:57.303Z,6.75
2018-11-27T00:09:23.407Z,6.77
2018-11-27T00:09:49.517Z,6.82
2018-11-27T00:10:15.643Z,6.81
2018-11-27T00:10:41.752Z,6.79
2018-11-27T00:11:07.856Z,6.69
2018-11-27T00:11:33.991Z,6.64
2018-11-27T00:12:00.098Z,6.64
2018-11-27T00:12:26.200Z,6.63
2018-11-27T00:12:52.313Z,6.63
2018-11-27T00:13:18.449Z,6.72
2018-11-27T00:13:44.575Z,6.6
2018-11-27T00:14:10.683Z,6.54
2018-11-27T00:14:36.787Z,6.56
2018-11-27T00:15:02.891Z,6.64
2018-11-27T00:15:29.003Z,6.6
2018-11-27T00:15:55.117Z,6.63
2018-11-27T00:16:21.245Z,6.59
2018-11-27T00:16:47.348Z,6.59
2018-11-27T00:17:13.451Z,6.59
2018-11-27T00:17:39.561Z,6.6
2018-11-27T00:18:05.658Z,6.62
2018-11-27T00:18:31.767Z,6.54
2018-11-27T00:18:57.874Z,6.54
2018-11-27T00:19:23.985Z,6.56
2018-11-27T00:19:50.080Z,6.57
2018-11-27T00:20:16.184Z,6.54
2018-11-27T00:20:42.294Z,6.63
2018-11-27T00:21:08.396Z,6.48
2018-11-27T00:21:34.501Z,6.49
2018-11-27T00:22:00.609Z,6.49
2018-11-27T00:22:26.711Z,6.52
2018-11-27T00:22:52.809Z,6.54
2018-11-27T00:23:18.920Z,6.63
2018-11-27T00:23:45.029Z,6.59
2018-11-27T00:24:11.154Z,6.57
2018-11-27T00:24:37.258Z,6.54
2018-11-27T00:25:03.363Z,6.56
2018-11-27T00:25:29.488Z,6.54
2018-11-27T00:25:55.595Z,6.57
2018-11-27T00:26:21.694Z,6.56
2018-11-27T00:26:47.806Z,6.49
2018-11-27T00:27:13.905Z,6.54
2018-11-27T00:27:40.016Z,6.52
2018-11-27T00:28:06.122Z,6.46
2018-11-27T00:28:32.255Z,6.44
2018-11-27T00:28:58.362Z,6.44
2018-11-27T00:29:24.465Z,6.46
2018-11-27T00:29:50.567Z,6.44
2018-11-27T00:30:16.674Z,6.44
2018-11-27T00:30:42.780Z,6.46
2018-11-27T00:31:08.889Z,6.44
2018-11-27T00:31:35.018Z,6.52
2018-11-27T00:32:01.130Z,6.54
2018-11-27T00:32:27.240Z,6.52
2018-11-27T00:32:53.341Z,6.51
2018-11-27T00:33:19.444Z,6.56
2018-11-27T00:33:45.569Z,6.62
2018-11-27T00:34:11.681Z,6.51
2018-11-27T00:34:37.784Z,6.59
2018-11-27T00:35:03.883Z,6.46
2018-11-27T00:35:29.993Z,6.51
2018-11-27T00:35:56.100Z,6.54
2018-11-27T00:36:22.236Z,6.54
2018-11-27T00:36:48.310Z,6.59
2018-11-27T00:37:14.413Z,6.51
2018-11-27T00:37:40.520Z,6.46
2018-11-27T00:38:06.654Z,6.48
2018-11-27T00:38:32.760Z,6.51
2018-11-27T00:38:58.862Z,6.52
2018-11-27T00:39:24.970Z,6.44
2018-11-27T00:39:51.073Z,6.44
2018-11-27T00:40:17.174Z,6.48
2018-11-27T00:40:43.280Z,6.41
2018-11-27T00:41:09.392Z,6.49
2018-11-27T00:41:35.496Z,6.38
2018-11-27T00:42:01.595Z,6.38
2018-11-27T00:42:27.733Z,6.41
2018-11-27T00:42:53.842Z,6.39
2018-11-27T00:43:19.944Z,6.38
2018-11-27T00:43:46.046Z,6.39
2018-11-27T00:44:12.185Z,6.35
2018-11-27T00:44:38.296Z,6.41
2018-11-27T00:45:04.398Z,6.35
2018-11-27T00:45:30.502Z,6.42
2018-11-27T00:45:56.607Z,6.39
2018-11-27T00:46:22.712Z,6.39
2018-11-27T00:46:48.818Z,6.39
2018-11-27T00:47:14.949Z,6.44
2018-11-27T00:47:41.053Z,6.51
2018-11-27T00:48:07.186Z,6.57
2018-11-27T00:48:33.286Z,6.44
2018-11-27T00:48:59.428Z,6.49
2018-11-27T00:49:25.533Z,6.51
2018-11-27T00:49:51.629Z,6.48
2018-11-27T00:50:17.757Z,6.6
2018-11-27T00:50:43.864Z,6.6
2018-11-27T00:51:09.964Z,6.59
2018-11-27T00:51:36.098Z,6.59
2018-11-27T00:52:02.203Z,6.7
2018-11-27T00:52:28.313Z,6.72
2018-11-27T00:52:54.448Z,6.7
2018-11-27T00:53:20.553Z,6.72
2018-11-27T00:53:46.658Z,6.66
2018-11-27T00:54:12.795Z,6.6
2018-11-27T00:54:38.892Z,6.63
2018-11-27T00:55:05.024Z,6.62
2018-11-27T00:55:31.159Z,6.67
2018-11-27T00:55:57.269Z,6.77
2018-11-27T00:56:23.369Z,6.6
2018-11-27T00:56:49.475Z,6.64
2018-11-27T00:57:15.587Z,6.57
2018-11-27T00:57:41.689Z,6.74
2018-11-27T00:58:07.823Z,6.66
2018-11-27T00:58:33.925Z,6.72
2018-11-27T00:59:00.058Z,6.78
2018-11-27T00:59:26.170Z,6.75
2018-11-27T00:59:52.290Z,6.59
2018-11-27T01:00:18.390Z,6.69
2018-11-27T01:00:44.529Z,6.77
2018-11-27T01:01:10.633Z,6.82
2018-11-27T01:01:36.729Z,6.79
2018-11-27T01:02:02.835Z,6.87
2018-11-27T01:02:28.934Z,6.82
2018-11-27T01:02:55.044Z,6.78
2018-11-27T01:03:21.149Z,6.79
2018-11-27T01:03:47.286Z,6.72
2018-11-27T01:04:13.387Z,6.72
2018-11-27T01:04:39.496Z,6.77
2018-11-27T01:05:05.599Z,6.75
2018-11-27T01:05:31.730Z,6.74
2018-11-27T01:05:57.843Z,6.67
2018-11-27T01:06:23.945Z,6.64
2018-11-27T01:06:50.040Z,6.57
2018-11-27T01:07:16.150Z,6.72
2018-11-27T01:07:42.251Z,6.6
2018-11-27T01:08:08.360Z,6.69
2018-11-27T01:08:34.469Z,6.62
2018-11-27T01:09:00.571Z,6.72
2018-11-27T01:09:26.708Z,6.81
2018-11-27T01:09:52.817Z,6.69
2018-11-27T01:10:18.918Z,6.67
2018-11-27T01:10:45.031Z,6.63
2018-11-27T01:11:11.131Z,6.63
2018-11-27T01:11:37.232Z,6.59
2018-11-27T01:12:03.340Z,6.48
2018-11-27T01:12:29.453Z,6.44
2018-11-27T01:12:55.553Z,6.44
2018-11-27T01:13:21.685Z,6.44
2018-11-27T01:13:47.784Z,6.38
2018-11-27T01:14:13.891Z,6.42
2018-11-27T01:14:40.026Z,6.48
2018-11-27T01:15:06.158Z,6.42
2018-11-27T01:15:32.269Z,6.44
2018-11-27T01:15:58.375Z,6.51
2018-11-27T01:16:24.476Z,6.49
2018-11-27T01:16:50.587Z,6.51
2018-11-27T01:17:16.721Z,6.51
2018-11-27T01:17:42.822Z,6.51
2018-11-27T01:18:08.952Z,6.42
2018-11-27T01:18:35.064Z,6.42
2018-11-27T01:19:01.171Z,6.41
2018-11-27T01:19:27.310Z,6.44
2018-11-27T01:19:53.416Z,6.35
2018-11-27T01:20:19.520Z,6.44
2018-11-27T01:20:45.621Z,6.42
2018-11-27T01:21:11.734Z,6.38
2018-11-27T01:21:37.835Z,6.41
2018-11-27T01:22:03.936Z,6.46
2018-11-27T01:22:30.041Z,6.49
2018-11-27T01:22:56.176Z,6.45
2018-11-27T01:23:22.279Z,6.48
2018-11-27T01:23:48.377Z,6.42
2018-11-27T01:24:14.487Z,6.45
2018-11-27T01:24:40.596Z,6.38
2018-11-27T01:25:06.721Z,6.39
2018-11-27T01:25:32.862Z,6.41
2018-11-27T01:26:01.412Z,6.36
2018-11-27T01:26:27.511Z,6.44
2018-11-27T01:26:53.619Z,6.45
2018-11-27T01:27:19.721Z,6.45
2018-11-27T01:27:45.821Z,6.42
2018-11-27T01:28:11.937Z,6.44
2018-11-27T01:28:38.028Z,6.54
2018-11-27T01:29:04.136Z,6.57
2018-11-27T01:29:30.238Z,6.49
2018-11-27T01:29:56.344Z,6.51
2018-11-27T01:30:22.444Z,6.51
2018-11-27T01:30:48.551Z,6.44
2018-11-27T01:31:14.655Z,6.41
2018-11-27T01:31:40.781Z,6.46
2018-11-27T01:32:06.885Z,6.35
2018-11-27T01:32:33.021Z,6.36
2018-11-27T01:32:59.153Z,6.31
2018-11-27T01:33:25.319Z,6.24
2018-11-27T01:33:51.422Z,6.2
2018-11-27T01:34:17.530Z,6.24
2018-11-27T01:34:43.630Z,6.3
2018-11-27T01:35:09.736Z,6.17
2018-11-27T01:35:35.846Z,6.16
2018-11-27T01:36:01.982Z,6.19
2018-11-27T01:36:28.115Z,6.17
2018-11-27T01:36:54.217Z,6.16
2018-11-27T01:37:20.326Z,6.24
2018-11-27T01:37:46.461Z,6.3
2018-11-27T01:38:12.565Z,6.26
2018-11-27T01:38:38.666Z,6.27
2018-11-27T01:39:04.776Z,6.38
2018-11-27T01:39:30.882Z,6.3
2018-11-27T01:39:56.983Z,6.28
2018-11-27T01:40:23.084Z,6.27
2018-11-27T01:40:49.189Z,6.26
2018-11-27T01:41:15.295Z,6.36
2018-11-27T01:41:41.400Z,6.38
2018-11-27T01:42:07.505Z,6.38
2018-11-27T01:42:33.610Z,6.51
2018-11-27T01:42:59.767Z,6.41
2018-11-27T01:43:25.874Z,6.45
2018-11-27T01:43:52.009Z,6.49
2018-11-27T01:44:18.115Z,6.56
2018-11-27T01:44:44.211Z,6.56
2018-11-27T01:45:10.321Z,6.6
2018-11-27T01:45:36.452Z,6.62
2018-11-27T01:46:02.563Z,6.6
2018-11-27T01:46:28.689Z,6.7
2018-11-27T01:46:54.787Z,6.59
2018-11-27T01:47:20.892Z,6.62
2018-11-27T01:47:46.991Z,6.52
2018-11-27T01:48:13.104Z,6.6
2018-11-27T01:48:39.209Z,6.56
2018-11-27T01:49:05.319Z,6.6
2018-11-27T01:49:31.423Z,6.57
2018-11-27T01:49:57.521Z,6.6
2018-11-27T01:50:23.626Z,6.52
2018-11-27T01:50:49.741Z,6.57
2018-11-27T01:51:15.842Z,6.56
2018-11-27T01:51:41.952Z,6.45
2018-11-27T01:52:08.055Z,6.48
2018-11-27T01:52:34.167Z,6.57
2018-11-27T01:53:00.272Z,6.52
2018-11-27T01:53:26.375Z,6.54
2018-11-27T01:53:52.484Z,6.57
2018-11-27T01:54:18.586Z,6.63
2018-11-27T01:54:44.686Z,6.63
2018-11-27T01:55:10.795Z,6.59
2018-11-27T01:55:36.902Z,6.62
2018-11-27T01:56:03.008Z,6.63
2018-11-27T01:56:29.111Z,6.62
2018-11-27T01:56:55.275Z,6.63
2018-11-27T01:57:21.386Z,6.6
2018-11-27T01:57:47.498Z,6.6
2018-11-27T01:58:13.600Z,6.62
2018-11-27T01:58:39.710Z,6.59
2018-11-27T01:59:05.812Z,6.59
2018-11-27T01:59:31.921Z,6.62
2018-11-27T01:59:58.024Z,6.63
2018-11-27T02:00:24.125Z,6.62
2018-11-27T02:00:50.232Z,6.67
2018-11-27T02:01:16.343Z,6.66
2018-11-27T02:01:42.447Z,6.75
2018-11-27T02:02:08.549Z,6.54
2018-11-27T02:02:34.683Z,6.77
2018-11-27T02:03:00.790Z,6.63
2018-11-27T02:03:26.904Z,6.69
2018-11-27T02:03:53.006Z,6.78
2018-11-27T02:04:19.111Z,6.7
2018-11-27T02:04:45.213Z,6.66
2018-11-27T02:05:11.312Z,6.77
2018-11-27T02:05:37.451Z,6.59
2018-11-27T02:06:03.548Z,6.69
2018-11-27T02:06:29.658Z,6.6
2018-11-27T02:06:55.762Z,6.69
2018-11-27T02:07:21.869Z,6.66
2018-11-27T02:07:48.004Z,6.72
2018-11-27T02:08:14.114Z,6.75
2018-11-27T02:08:40.214Z,6.72
2018-11-27T02:09:06.316Z,6.62
2018-11-27T02:09:32.455Z,6.72
2018-11-27T02:09:58.554Z,6.7
2018-11-27T02:10:24.692Z,6.59
2018-11-27T02:10:50.801Z,6.62
2018-11-27T02:11:16.909Z,6.72
2018-11-27T02:11:43.038Z,6.62
2018-11-27T02:12:09.146Z,6.64
2018-11-27T02:12:35.249Z,6.56
2018-11-27T02:13:02.351Z,6.75
2018-11-27T02:13:28.491Z,6.72
2018-11-27T02:13:54.593Z,6.72
2018-11-27T02:14:20.698Z,6.72
2018-11-27T02:14:46.833Z,6.59
2018-11-27T02:15:12.940Z,6.6
2018-11-27T02:15:39.041Z,6.6
2018-11-27T02:16:05.144Z,6.57
2018-11-27T02:16:31.283Z,6.54
2018-11-27T02:16:57.389Z,6.56
2018-11-27T02:17:23.489Z,6.6
2018-11-27T02:17:49.591Z,6.59
2018-11-27T02:18:15.697Z,6.59
2018-11-27T02:18:41.799Z,6.57
2018-11-27T02:19:07.906Z,6.64
2018-11-27T02:19:34.017Z,6.62
2018-11-27T02:20:00.120Z,6.59
2018-11-27T02:20:26.228Z,6.59
2018-11-27T02:20:52.330Z,6.62
2018-11-27T02:21:18.428Z,6.62
2018-11-27T02:21:44.540Z,6.63
2018-11-27T02:22:10.644Z,6.6
2018-11-27T02:22:36.747Z,6.59
2018-11-27T02:23:02.876Z,6.57
2018-11-27T02:23:28.981Z,6.6
2018-11-27T02:23:55.087Z,6.63
2018-11-27T02:24:21.192Z,6.57
2018-11-27T02:24:47.296Z,6.63
2018-11-27T02:25:13.421Z,6.57
2018-11-27T02:25:39.519Z,6.51
2018-11-27T02:26:05.626Z,6.59
2018-11-27T02:26:31.730Z,6.63
2018-11-27T02:26:57.839Z,6.63
2018-11-27T02:27:23.946Z,6.54
2018-11-27T02:27:50.097Z,6.62
2018-11-27T02:28:16.204Z,6.56
2018-11-27T02:28:42.312Z,6.59
2018-11-27T02:29:08.414Z,6.59
2018-11-27T02:29:34.518Z,6.7
2018-11-27T02:30:00.630Z,6.6
2018-11-27T02:30:26.733Z,6.6
2018-11-27T02:30:52.839Z,6.66
2018-11-27T02:31:18.982Z,6.66
2018-11-27T02:31:45.087Z,6.64
2018-11-27T02:32:11.192Z,6.7
2018-11-27T02:32:37.315Z,6.75
2018-11-27T02:33:03.416Z,6.72
2018-11-27T02:33:29.548Z,6.7
2018-11-27T02:33:55.648Z,6.7
2018-11-27T02:34:21.749Z,6.6
2018-11-27T02:34:47.855Z,6.63
2018-11-27T02:35:13.988Z,6.63
2018-11-27T02:35:40.119Z,6.63
2018-11-27T02:36:06.219Z,6.69
2018-11-27T02:36:32.328Z,6.67
2018-11-27T02:36:58.441Z,6.72
2018-11-27T02:37:24.543Z,6.62
2018-11-27T02:37:50.650Z,6.7
2018-11-27T02:38:16.761Z,6.67
2018-11-27T02:38:42.892Z,6.77
2018-11-27T02:39:09.023Z,6.69
2018-11-27T02:39:35.239Z,6.67
2018-11-27T02:40:01.342Z,6.72
2018-11-27T02:40:27.496Z,6.7
2018-11-27T02:40:53.586Z,6.7
2018-11-27T02:41:19.721Z,6.69
2018-11-27T02:41:45.847Z,6.74
2018-11-27T02:42:11.977Z,6.72
2018-11-27T02:42:38.092Z,6.77
2018-11-27T02:43:04.219Z,6.77
2018-11-27T02:43:30.324Z,6.81
2018-11-27T02:43:56.458Z,6.74
2018-11-27T02:44:22.583Z,6.77
2018-11-27T02:44:48.689Z,6.88
2018-11-27T02:45:14.796Z,6.89
2018-11-27T02:45:40.921Z,6.87
2018-11-27T02:46:07.057Z,6.95
2018-11-27T02:46:33.201Z,6.96
2018-11-27T02:46:59.305Z,6.87
2018-11-27T02:47:25.410Z,6.96
2018-11-27T02:47:51.513Z,6.81
2018-11-27T02:48:17.678Z,6.87
2018-11-27T02:48:43.782Z,6.85
2018-11-27T02:49:09.952Z,6.77
2018-11-27T02:49:36.064Z,6.77
2018-11-27T02:50:02.189Z,6.84
2018-11-27T02:50:28.345Z,6.81
2018-11-27T02:50:54.460Z,6.85
2018-11-27T02:51:20.574Z,6.82
2018-11-27T02:51:46.699Z,6.78
2018-11-27T02:52:12.800Z,6.77
2018-11-27T02:52:38.907Z,6.87
2018-11-27T02:53:05.040Z,6.82
2018-11-27T02:53:31.140Z,6.87
2018-11-27T02:53:57.245Z,6.81
2018-11-27T02:54:23.345Z,6.92
2018-11-27T02:54:49.449Z,6.78
2018-11-27T02:55:15.554Z,6.81
2018-11-27T02:55:41.678Z,6.87
2018-11-27T02:56:07.792Z,6.89
2018-11-27T02:56:33.922Z,6.82
2018-11-27T02:57:00.026Z,6.78
2018-11-27T02:57:26.128Z,6.84
2018-11-27T02:57:52.234Z,6.78
2018-11-27T02:58:18.335Z,6.77
2018-11-27T02:58:44.469Z,6.84
2018-11-27T02:59:10.569Z,6.78
2018-11-27T02:59:36.699Z,6.78
2018-11-27T03:00:02.803Z,6.79
2018-11-27T03:00:28.914Z,6.78
2018-11-27T03:00:55.036Z,6.77
2018-11-27T03:01:21.173Z,6.79
2018-11-27T03:01:47.274Z,6.77
2018-11-27T03:02:13.379Z,6.78
2018-11-27T03:02:39.511Z,6.72
2018-11-27T03:03:05.651Z,6.75
2018-11-27T03:03:31.788Z,6.78
2018-11-27T03:03:57.891Z,6.67
2018-11-27T03:04:23.999Z,6.74
2018-11-27T03:04:50.128Z,6.66
2018-11-27T03:05:16.267Z,6.72
2018-11-27T03:05:42.401Z,6.72
2018-11-27T03:06:08.525Z,6.74
2018-11-27T03:06:34.646Z,6.67
2018-11-27T03:07:00.752Z,6.69
2018-11-27T03:07:26.853Z,6.72
2018-11-27T03:07:52.970Z,6.72
2018-11-27T03:08:19.074Z,6.72
2018-11-27T03:08:45.175Z,6.72
2018-11-27T03:09:11.281Z,6.6
2018-11-27T03:09:37.382Z,6.62
2018-11-27T03:10:03.525Z,6.54
2018-11-27T03:10:29.624Z,6.49
2018-11-27T03:10:55.734Z,6.54
2018-11-27T03:11:21.829Z,6.44
2018-11-27T03:11:47.929Z,6.48
2018-11-27T03:12:14.042Z,6.42
2018-11-27T03:12:40.152Z,6.52
2018-11-27T03:13:06.259Z,6.46
2018-11-27T03:13:32.382Z,6.45
2018-11-27T03:13:58.514Z,6.52
2018-11-27T03:14:24.655Z,6.56
2018-11-27T03:14:50.786Z,6.44
2018-11-27T03:15:16.887Z,6.54
2018-11-27T03:15:42.998Z,6.51
2018-11-27T03:16:09.095Z,6.48
2018-11-27T03:16:35.199Z,6.52
2018-11-27T03:17:01.310Z,6.49
2018-11-27T03:17:27.413Z,6.59
2018-11-27T03:17:53.543Z,6.6
2018-11-27T03:18:19.645Z,6.6
2018-11-27T03:18:45.777Z,6.54
2018-11-27T03:19:11.911Z,6.51
2018-11-27T03:19:38.012Z,6.63
2018-11-27T03:20:04.118Z,6.57
2018-11-27T03:20:30.262Z,6.63
2018-11-27T03:20:56.444Z,6.6
2018-11-27T03:21:22.597Z,6.59
2018-11-27T03:21:48.702Z,6.59
2018-11-27T03:22:14.806Z,6.56
2018-11-27T03:22:40.918Z,6.59
2018-11-27T03:23:07.027Z,6.6
2018-11-27T03:23:33.125Z,6.56
2018-11-27T03:23:59.235Z,6.54
2018-11-27T03:24:25.372Z,6.52
2018-11-27T03:24:51.506Z,6.56
2018-11-27T03:25:17.646Z,6.48
2018-11-27T03:25:43.776Z,6.48
2018-11-27T03:26:09.873Z,6.56
2018-11-27T03:26:35.982Z,6.63
2018-11-27T03:27:02.119Z,6.59
2018-11-27T03:27:28.248Z,6.6
2018-11-27T03:27:54.364Z,6.6
2018-11-27T03:28:20.487Z,6.64
2018-11-27T03:28:46.612Z,6.54
2018-11-27T03:29:12.717Z,6.49
2018-11-27T03:29:38.821Z,6.54
2018-11-27T03:30:04.961Z,6.52
2018-11-27T03:30:31.127Z,6.54
2018-11-27T03:30:57.250Z,6.49
2018-11-27T03:31:23.442Z,6.48
2018-11-27T03:31:49.611Z,6.52
2018-11-27T03:32:15.744Z,6.48
2018-11-27T03:32:41.892Z,6.56
2018-11-27T03:33:08.016Z,6.56
2018-11-27T03:33:34.127Z,6.49
2018-11-27T03:34:00.231Z,6.54
2018-11-27T03:34:26.417Z,6.49
2018-11-27T03:34:52.510Z,6.46
2018-11-27T03:35:18.614Z,6.57
2018-11-27T03:35:44.740Z,6.59
2018-11-27T03:36:10.853Z,6.59
2018-11-27T03:36:36.960Z,6.57
2018-11-27T03:37:03.065Z,6.6
2018-11-27T03:37:29.170Z,6.59
2018-11-27T03:37:55.289Z,6.6
2018-11-27T03:38:21.384Z,6.62
2018-11-27T03:38:47.475Z,6.59
2018-11-27T03:39:13.612Z,6.64
2018-11-27T03:39:39.713Z,6.56
2018-11-27T03:40:05.820Z,6.6
2018-11-27T03:40:31.975Z,6.52
2018-11-27T03:40:58.105Z,6.59
2018-11-27T03:41:24.244Z,6.57
2018-11-27T03:41:50.341Z,6.56
2018-11-27T03:42:16.473Z,6.51
2018-11-27T03:42:42.589Z,6.59
2018-11-27T03:43:08.717Z,6.59
2018-11-27T03:43:34.821Z,6.54
2018-11-27T03:44:00.924Z,6.57
2018-11-27T03:44:27.054Z,6.6
2018-11-27T03:44:53.180Z,6.64
2018-11-27T03:45:19.281Z,6.54
2018-11-27T03:45:45.385Z,6.57
2018-11-27T03:46:11.490Z,6.56
2018-11-27T03:46:37.638Z,6.54
2018-11-27T03:47:03.751Z,6.63
2018-11-27T03:47:29.877Z,6.54
2018-11-27T03:47:55.987Z,6.54
2018-11-27T03:48:22.121Z,6.54
2018-11-27T03:48:48.227Z,6.56
2018-11-27T03:49:14.330Z,6.49
2018-11-27T03:49:40.443Z,6.48
2018-11-27T03:50:06.571Z,6.54
2018-11-27T03:50:32.705Z,6.48
2018-11-27T03:50:58.810Z,6.52
2018-11-27T03:51:24.914Z,6.6
2018-11-27T03:51:51.028Z,6.59
2018-11-27T03:52:17.127Z,6.57
2018-11-27T03:52:43.234Z,6.54
2018-11-27T03:53:09.337Z,6.59
2018-11-27T03:53:35.446Z,6.56
2018-11-27T03:54:01.572Z,6.72
2018-11-27T03:54:27.682Z,6.75
2018-11-27T03:54:53.813Z,6.7
2018-11-27T03:55:19.942Z,6.56
2018-11-27T03:55:46.071Z,6.59
2018-11-27T03:56:12.190Z,6.6
2018-11-27T03:56:38.316Z,6.56
2018-11-27T03:57:04.453Z,6.62
2018-11-27T03:57:30.578Z,6.62
2018-11-27T03:57:56.682Z,6.63
2018-11-27T03:58:22.791Z,6.62
2018-11-27T03:58:48.889Z,6.59
2018-11-27T03:59:15.001Z,6.67
2018-11-27T03:59:41.100Z,6.72
2018-11-27T04:00:07.212Z,6.62
2018-11-27T04:00:33.308Z,6.72
2018-11-27T04:00:59.410Z,6.64
2018-11-27T04:01:25.548Z,6.63
2018-11-27T04:01:51.656Z,6.59
2018-11-27T04:02:17.754Z,6.72
2018-11-27T04:02:43.889Z,6.75
2018-11-27T04:03:09.999Z,6.72
2018-11-27T04:03:36.107Z,6.63
2018-11-27T04:04:02.239Z,6.56
2018-11-27T04:04:29.370Z,6.52
2018-11-27T04:04:55.461Z,6.54
2018-11-27T04:05:21.633Z,6.56
2018-11-27T04:05:47.742Z,6.59
2018-11-27T04:06:13.840Z,6.59
2018-11-27T04:06:39.943Z,6.54
2018-11-27T04:07:06.054Z,6.51
2018-11-27T04:07:32.156Z,6.6
2018-11-27T04:07:58.260Z,6.54
2018-11-27T04:08:24.398Z,6.46
2018-11-27T04:08:50.499Z,6.56
2018-11-27T04:09:16.603Z,6.51
2018-11-27T04:09:42.705Z,6.51
2018-11-27T04:10:08.816Z,6.49
2018-11-27T04:10:34.948Z,6.54
2018-11-27T04:11:01.089Z,6.59
2018-11-27T04:11:27.191Z,6.52
2018-11-27T04:11:53.295Z,6.51
2018-11-27T04:12:19.403Z,6.46
2018-11-27T04:12:45.566Z,6.44
2018-11-27T04:13:11.702Z,6.39
2018-11-27T04:13:37.835Z,6.46
2018-11-27T04:14:03.973Z,6.45
2018-11-27T04:14:30.100Z,6.44
2018-11-27T04:14:56.212Z,6.44
2018-11-27T04:15:22.337Z,6.46
2018-11-27T04:15:48.481Z,6.42
2018-11-27T04:16:14.579Z,6.44
2018-11-27T04:16:40.715Z,6.45
2018-11-27T04:17:06.879Z,6.39
2018-11-27T04:17:33.018Z,6.42
2018-11-27T04:17:59.158Z,6.36
2018-11-27T04:18:25.388Z,6.31
2018-11-27T04:18:51.512Z,6.35
2018-11-27T04:19:17.672Z,6.38
2018-11-27T04:19:43.809Z,6.35
2018-11-27T04:20:09.918Z,6.3
2018-11-27T04:20:37.039Z,6.42
2018-11-27T04:21:03.145Z,6.36
2018-11-27T04:21:29.280Z,6.41
2018-11-27T04:21:55.416Z,6.36
2018-11-27T04:22:21.572Z,6.42
2018-11-27T04:22:47.732Z,6.39
2018-11-27T04:23:13.868Z,6.44
2018-11-27T04:23:39.976Z,6.48
2018-11-27T04:24:06.083Z,6.48
2018-11-27T04:24:32.193Z,6.52
2018-11-27T04:24:58.296Z,6.57
2018-11-27T04:25:24.428Z,6.6
2018-11-27T04:25:50.568Z,6.6
2018-11-27T04:26:16.700Z,6.64
2018-11-27T04:26:42.842Z,6.63
2018-11-27T04:27:08.969Z,6.62
2018-11-27T04:27:35.065Z,6.59
2018-11-27T04:28:01.177Z,6.7
2018-11-27T04:28:27.317Z,6.57
2018-11-27T04:28:53.418Z,6.57
2018-11-27T04:29:19.557Z,6.74
2018-11-27T04:29:45.676Z,6.74
2018-11-27T04:30:11.830Z,6.69
2018-11-27T04:30:37.935Z,6.72
2018-11-27T04:31:04.076Z,6.67
2018-11-27T04:31:30.207Z,6.7
2018-11-27T04:31:56.305Z,6.62
2018-11-27T04:32:22.434Z,6.69
2018-11-27T04:32:48.543Z,6.74
2018-11-27T04:33:14.647Z,6.75
2018-11-27T04:33:40.797Z,6.6
2018-11-27T04:34:06.907Z,6.6
2018-11-27T04:34:33.037Z,6.6
2018-11-27T04:34:59.137Z,6.6
2018-11-27T04:35:25.273Z,6.6
2018-11-27T04:35:51.379Z,6.57
2018-11-27T04:36:17.534Z,6.67
2018-11-27T04:36:43.664Z,6.59
2018-11-27T04:37:09.772Z,6.6
2018-11-27T04:37:35.871Z,6.75
2018-11-27T04:38:02.037Z,6.64
2018-11-27T04:38:28.145Z,6.59
2018-11-27T04:38:54.270Z,6.6
2018-11-27T04:39:20.437Z,6.57
2018-11-27T04:39:46.546Z,6.75
2018-11-27T04:40:12.699Z,6.77
2018-11-27T04:40:38.824Z,6.74
2018-11-27T04:41:04.932Z,6.6
2018-11-27T04:41:31.039Z,6.56
2018-11-27T04:41:57.143Z,6.57
2018-11-27T04:42:23.249Z,6.69
2018-11-27T04:42:49.338Z,6.56
2018-11-27T04:43:15.468Z,6.56
2018-11-27T04:43:41.579Z,6.59
2018-11-27T04:44:07.714Z,6.59
2018-11-27T04:44:33.842Z,6.56
2018-11-27T04:44:59.945Z,6.57
2018-11-27T04:45:26.076Z,6.59
2018-11-27T04:45:52.186Z,6.72
2018-11-27T04:46:18.294Z,6.7
2018-11-27T04:46:44.424Z,6.7
2018-11-27T04:47:10.529Z,6.72
2018-11-27T04:47:36.660Z,6.74
2018-11-27T04:48:02.761Z,6.7
2018-11-27T04:48:28.859Z,6.6
2018-11-27T04:48:54.964Z,6.66
2018-11-27T04:49:21.074Z,6.75
2018-11-27T04:49:47.197Z,6.72
2018-11-27T04:50:13.355Z,6.75
2018-11-27T04:50:39.459Z,6.74
2018-11-27T04:51:05.620Z,6.74
2018-11-27T04:51:31.713Z,6.75
2018-11-27T04:51:57.827Z,6.74
2018-11-27T04:52:23.924Z,6.74
2018-11-27T04:52:50.030Z,6.66
2018-11-27T04:53:16.193Z,6.62
2018-11-27T04:53:42.349Z,6.69
2018-11-27T04:54:08.458Z,6.72
2018-11-27T04:54:34.556Z,6.7
2018-11-27T04:55:00.666Z,6.75
2018-11-27T04:55:26.793Z,6.75
2018-11-27T04:55:52.897Z,6.74
2018-11-27T04:56:19.002Z,6.74
2018-11-27T04:56:45.113Z,6.74
2018-11-27T04:57:11.217Z,6.75
2018-11-27T04:57:37.331Z,6.75
2018-11-27T04:58:03.457Z,6.77
2018-11-27T04:58:29.570Z,6.75
2018-11-27T04:58:55.670Z,6.78
2018-11-27T04:59:21.782Z,6.7
2018-11-27T04:59:47.877Z,6.75
2018-11-27T05:00:13.989Z,6.75
2018-11-27T05:00:40.095Z,6.78
2018-11-27T05:01:06.230Z,6.78
2018-11-27T05:01:32.352Z,6.72
2018-11-27T05:01:58.457Z,6.7
2018-11-27T05:02:24.567Z,6.72
2018-11-27T05:02:50.696Z,6.72
2018-11-27T05:03:16.858Z,6.72
2018-11-27T05:03:42.961Z,6.81
2018-11-27T05:04:09.059Z,6.79
2018-11-27T05:04:35.165Z,6.79
2018-11-27T05:05:01.269Z,6.78
2018-11-27T05:05:27.399Z,6.77
2018-11-27T05:05:53.549Z,6.6
2018-11-27T05:06:19.659Z,6.59
2018-11-27T05:06:45.768Z,6.64
2018-11-27T05:07:11.869Z,6.6
2018-11-27T05:07:37.971Z,6.59
2018-11-27T05:08:04.101Z,6.57
2018-11-27T05:08:30.210Z,6.54
2018-11-27T05:08:56.310Z,6.6
2018-11-27T05:09:22.485Z,6.57
2018-11-27T05:09:48.615Z,6.56
2018-11-27T05:10:14.749Z,6.52
2018-11-27T05:10:40.848Z,6.51
2018-11-27T05:11:06.989Z,6.52
2018-11-27T05:11:33.091Z,6.49
2018-11-27T05:11:59.223Z,6.41
2018-11-27T05:12:25.325Z,6.45
2018-11-27T05:12:51.438Z,6.45
2018-11-27T05:13:17.542Z,6.45
2018-11-27T05:13:43.643Z,6.52
2018-11-27T05:14:09.751Z,6.46
2018-11-27T05:14:35.850Z,6.51
2018-11-27T05:15:01.952Z,6.46
2018-11-27T05:15:28.080Z,6.51
2018-11-27T05:15:54.183Z,6.51
2018-11-27T05:16:20.293Z,6.57
2018-11-27T05:16:46.398Z,6.45
2018-11-27T05:17:12.499Z,6.59
2018-11-27T05:17:38.614Z,6.59
2018-11-27T05:18:05.710Z,6.6
2018-11-27T05:18:31.818Z,6.57
2018-11-27T05:18:57.915Z,6.62
2018-11-27T05:19:24.029Z,6.6
2018-11-27T05:19:50.135Z,6.59
2018-11-27T05:20:16.291Z,6.6
2018-11-27T05:20:42.390Z,6.52
2018-11-27T05:21:08.498Z,6.56
2018-11-27T05:21:34.654Z,6.57
2018-11-27T05:22:00.779Z,6.62
2018-11-27T05:22:26.885Z,6.51
2018-11-27T05:22:52.985Z,6.57
2018-11-27T05:23:19.085Z,6.52
2018-11-27T05:23:45.186Z,6.51
2018-11-27T05:24:11.318Z,6.48
2018-11-27T05:24:37.432Z,6.49
2018-11-27T05:25:03.530Z,6.44
2018-11-27T05:25:29.639Z,6.44
2018-11-27T05:25:55.746Z,6.48
2018-11-27T05:26:21.849Z,6.45
2018-11-27T05:26:47.956Z,6.52
2018-11-27T05:27:14.095Z,6.52
2018-11-27T05:27:40.193Z,6.51
2018-11-27T05:28:06.309Z,6.56
2018-11-27T05:28:32.441Z,6.62
2018-11-27T05:28:58.547Z,6.54
2018-11-27T05:29:24.661Z,6.59
2018-11-27T05:29:50.791Z,6.57
2018-11-27T05:30:16.884Z,6.59
2018-11-27T05:30:43.986Z,6.62
2018-11-27T05:31:10.098Z,6.59
2018-11-27T05:31:36.197Z,6.59
2018-11-27T05:32:02.309Z,6.63
2018-11-27T05:32:28.414Z,6.54
2018-11-27T05:32:54.551Z,6.52
2018-11-27T05:33:20.645Z,6.63
2018-11-27T05:33:46.784Z,6.57
2018-11-27T05:34:12.889Z,6.51
2018-11-27T05:34:38.990Z,6.6
2018-11-27T05:35:05.121Z,6.45
2018-11-27T05:35:31.229Z,6.62
2018-11-27T05:35:58.373Z,6.57
2018-11-27T05:36:24.513Z,6.63
2018-11-27T05:36:50.619Z,6.57
2018-11-27T05:37:16.721Z,6.57
2018-11-27T05:37:42.828Z,6.6
2018-11-27T05:38:08.963Z,6.64
2018-11-27T05:38:35.067Z,6.6
2018-11-27T05:39:01.166Z,6.6
2018-11-27T05:39:27.307Z,6.59
2018-11-27T05:39:53.420Z,6.6
2018-11-27T05:40:19.543Z,6.56
2018-11-27T05:40:45.656Z,6.59
2018-11-27T05:41:11.760Z,6.56
2018-11-27T05:41:37.866Z,6.57
2018-11-27T05:42:03.974Z,6.59
2018-11-27T05:42:30.427Z,6.54
2018-11-27T05:42:56.543Z,6.57
2018-11-27T05:43:22.636Z,6.59
2018-11-27T05:43:49.730Z,6.57
2018-11-27T05:44:15.826Z,6.6
2018-11-27T05:44:41.928Z,6.6
2018-11-27T05:45:08.033Z,6.63
2018-11-27T05:45:34.181Z,6.6
2018-11-27T05:46:00.390Z,6.6
2018-11-27T05:46:26.490Z,6.6
2018-11-27T05:46:52.602Z,6.59
2018-11-27T05:47:18.697Z,6.49
2018-11-27T05:47:44.823Z,6.52
2018-11-27T05:48:10.937Z,6.57
2018-11-27T05:48:37.042Z,6.6
2018-11-27T05:49:03.201Z,6.59